sensor_id;sensor_type;location;lat;lon;timestamp;pressure;altitude;pressure_sealevel;temperature;humidity
26192;BME280;13935;55.672;37.764;2023-03-14T00:00:11;99832.38;;;-2.00;100.00
26192;BME280;13935;55.672;37.764;2023-03-14T00:01:16;99825.25;;;-1.96;100.00
26192;BME280;13935;55.672;37.764;2023-03-14T00:02:18;99818.09;;;-1.92;100.00
26192;BME280;13935;55.672;37.764;2023-03-14T00:03:23;99821.31;;;-1.90;100.00
26192;BME280;13935;55.672;37.764;2023-03-14T00:04:25;99815.78;;;-1.85;100.00
26192;BME280;13935;55.672;37.764;2023-03-14T00:05:28;99818.22;;;-1.75;100.00
26192;BME280;13935;55.672;37.764;2023-03-14T00:06:30;99813.25;;;-1.82;100.00
26192;BME280;13935;55.672;37.764;2023-03-14T00:07:34;99810.28;;;-1.94;100.00
26192;BME280;13935;55.672;37.764;2023-03-14T00:08:38;99808.16;;;-1.83;100.00
26192;BME280;13935;55.672;37.764;2023-03-14T00:09:40;99809.47;;;-1.94;100.00
26192;BME280;13935;55.672;37.764;2023-03-14T00:10:43;99803.56;;;-1.96;100.00
26192;BME280;13935;55.672;37.764;2023-03-14T00:11:45;99794.41;;;-1.87;100.00
26192;BME280;13935;55.672;37.764;2023-03-14T00:12:47;99797.53;;;-1.93;100.00
26192;BME280;13935;55.672;37.764;2023-03-14T00:13:50;99789.41;;;-1.93;100.00
26192;BME280;13935;55.672;37.764;2023-03-14T00:14:52;99791.19;;;-1.89;100.00
26192;BME280;13935;55.672;37.764;2023-03-14T00:15:55;99793.84;;;-1.97;100.00
26192;BME280;13935;55.672;37.764;2023-03-14T00:16:58;99788.53;;;-1.80;100.00
26192;BME280;13935;55.672;37.764;2023-03-14T00:18:00;99787.56;;;-1.84;100.00
26192;BME280;13935;55.672;37.764;2023-03-14T00:19:02;99785.59;;;-1.92;100.00
26192;BME280;13935;55.672;37.764;2023-03-14T00:20:06;99785.34;;;-1.82;100.00
26192;BME280;13935;55.672;37.764;2023-03-14T00:21:12;99779.19;;;-1.74;100.00
26192;BME280;13935;55.672;37.764;2023-03-14T00:22:14;99778.06;;;-1.73;100.00
26192;BME280;13935;55.672;37.764;2023-03-14T00:23:17;99775.06;;;-1.72;100.00
26192;BME280;13935;55.672;37.764;2023-03-14T00:24:19;99770.06;;;-1.78;100.00
26192;BME280;13935;55.672;37.764;2023-03-14T00:25:21;99773.25;;;-1.76;100.00
26192;BME280;13935;55.672;37.764;2023-03-14T00:26:24;99770.88;;;-1.78;100.00
26192;BME280;13935;55.672;37.764;2023-03-14T00:27:26;99768.34;;;-1.74;100.00
26192;BME280;13935;55.672;37.764;2023-03-14T00:28:29;99769.06;;;-1.82;100.00
26192;BME280;13935;55.672;37.764;2023-03-14T00:29:31;99764.03;;;-1.75;100.00
26192;BME280;13935;55.672;37.764;2023-03-14T00:30:37;99753.19;;;-1.75;100.00
26192;BME280;13935;55.672;37.764;2023-03-14T00:31:40;99758.00;;;-1.72;100.00
26192;BME280;13935;55.672;37.764;2023-03-14T00:32:43;99751.75;;;-1.73;100.00
26192;BME280;13935;55.672;37.764;2023-03-14T00:33:46;99747.75;;;-1.75;100.00
26192;BME280;13935;55.672;37.764;2023-03-14T00:34:50;99749.75;;;-1.67;100.00
26192;BME280;13935;55.672;37.764;2023-03-14T00:35:58;99752.56;;;-1.72;100.00
26192;BME280;13935;55.672;37.764;2023-03-14T00:37:03;99751.28;;;-1.75;100.00
26192;BME280;13935;55.672;37.764;2023-03-14T00:38:05;99741.13;;;-1.91;100.00
26192;BME280;13935;55.672;37.764;2023-03-14T00:39:07;99740.56;;;-1.80;100.00
26192;BME280;13935;55.672;37.764;2023-03-14T00:40:10;99735.78;;;-1.83;100.00
26192;BME280;13935;55.672;37.764;2023-03-14T00:41:16;99734.28;;;-1.89;100.00
26192;BME280;13935;55.672;37.764;2023-03-14T00:42:18;99746.00;;;-2.02;100.00
26192;BME280;13935;55.672;37.764;2023-03-14T00:43:21;99738.66;;;-2.01;100.00
26192;BME280;13935;55.672;37.764;2023-03-14T00:44:23;99738.84;;;-1.98;100.00
26192;BME280;13935;55.672;37.764;2023-03-14T00:45:26;99741.44;;;-1.93;100.00
26192;BME280;13935;55.672;37.764;2023-03-14T00:46:28;99755.06;;;-1.84;100.00
26192;BME280;13935;55.672;37.764;2023-03-14T00:47:30;99744.22;;;-1.84;100.00
26192;BME280;13935;55.672;37.764;2023-03-14T00:48:33;99743.47;;;-1.98;100.00
26192;BME280;13935;55.672;37.764;2023-03-14T00:49:35;99741.97;;;-1.82;100.00
26192;BME280;13935;55.672;37.764;2023-03-14T00:50:37;99746.47;;;-1.78;100.00
26192;BME280;13935;55.672;37.764;2023-03-14T00:51:39;99738.97;;;-1.81;100.00
26192;BME280;13935;55.672;37.764;2023-03-14T00:52:41;99745.19;;;-1.80;100.00
26192;BME280;13935;55.672;37.764;2023-03-14T00:53:43;99741.19;;;-1.83;100.00
26192;BME280;13935;55.672;37.764;2023-03-14T00:54:46;99738.84;;;-1.76;100.00
26192;BME280;13935;55.672;37.764;2023-03-14T00:55:48;99733.28;;;-1.71;100.00
26192;BME280;13935;55.672;37.764;2023-03-14T00:56:50;99739.69;;;-1.67;100.00
26192;BME280;13935;55.672;37.764;2023-03-14T00:57:52;99741.09;;;-1.47;100.00
26192;BME280;13935;55.672;37.764;2023-03-14T00:58:55;99740.59;;;-1.49;100.00
26192;BME280;13935;55.672;37.764;2023-03-14T00:59:57;99731.06;;;-1.39;100.00
26192;BME280;13935;55.672;37.764;2023-03-14T01:01:14;99739.31;;;-1.52;100.00
26192;BME280;13935;55.672;37.764;2023-03-14T01:02:17;99729.59;;;-1.44;100.00
26192;BME280;13935;55.672;37.764;2023-03-14T01:03:20;99721.78;;;-1.46;100.00
26192;BME280;13935;55.672;37.764;2023-03-14T01:04:23;99728.66;;;-1.40;100.00
26192;BME280;13935;55.672;37.764;2023-03-14T01:05:26;99710.97;;;-1.38;100.00
26192;BME280;13935;55.672;37.764;2023-03-14T01:06:30;99718.84;;;-1.28;100.00
26192;BME280;13935;55.672;37.764;2023-03-14T01:07:32;99704.28;;;-1.32;100.00
26192;BME280;13935;55.672;37.764;2023-03-14T01:08:34;99707.50;;;-1.30;100.00
26192;BME280;13935;55.672;37.764;2023-03-14T01:09:36;99710.06;;;-1.25;100.00
26192;BME280;13935;55.672;37.764;2023-03-14T01:10:40;99713.53;;;-1.33;100.00
26192;BME280;13935;55.672;37.764;2023-03-14T01:11:42;99714.69;;;-1.34;100.00
26192;BME280;13935;55.672;37.764;2023-03-14T01:12:48;99716.94;;;-1.27;100.00
26192;BME280;13935;55.672;37.764;2023-03-14T01:13:51;99715.38;;;-1.11;100.00
26192;BME280;13935;55.672;37.764;2023-03-14T01:14:53;99716.94;;;-1.27;100.00
26192;BME280;13935;55.672;37.764;2023-03-14T01:16:01;99709.94;;;-1.11;100.00
26192;BME280;13935;55.672;37.764;2023-03-14T01:17:05;99711.88;;;-1.12;100.00
26192;BME280;13935;55.672;37.764;2023-03-14T01:18:09;99710.75;;;-1.11;100.00
26192;BME280;13935;55.672;37.764;2023-03-14T01:19:11;99713.97;;;-1.09;100.00
26192;BME280;13935;55.672;37.764;2023-03-14T01:20:14;99712.06;;;-1.00;100.00
26192;BME280;13935;55.672;37.764;2023-03-14T01:21:21;99711.91;;;-0.95;100.00
26192;BME280;13935;55.672;37.764;2023-03-14T01:22:23;99710.00;;;-1.03;100.00
26192;BME280;13935;55.672;37.764;2023-03-14T01:23:26;99719.09;;;-0.99;100.00
26192;BME280;13935;55.672;37.764;2023-03-14T01:24:29;99720.81;;;-1.11;100.00
26192;BME280;13935;55.672;37.764;2023-03-14T01:25:32;99720.22;;;-1.00;100.00
26192;BME280;13935;55.672;37.764;2023-03-14T01:26:35;99711.25;;;-1.09;100.00
26192;BME280;13935;55.672;37.764;2023-03-14T01:27:40;99710.94;;;-1.07;100.00
26192;BME280;13935;55.672;37.764;2023-03-14T01:28:44;99708.56;;;-1.00;100.00
26192;BME280;13935;55.672;37.764;2023-03-14T01:29:47;99704.56;;;-1.03;100.00
26192;BME280;13935;55.672;37.764;2023-03-14T01:30:50;99697.38;;;-0.99;100.00
26192;BME280;13935;55.672;37.764;2023-03-14T01:31:53;99696.09;;;-1.10;100.00
26192;BME280;13935;55.672;37.764;2023-03-14T01:32:55;99694.69;;;-0.99;100.00
26192;BME280;13935;55.672;37.764;2023-03-14T01:33:57;99684.78;;;-0.95;100.00
26192;BME280;13935;55.672;37.764;2023-03-14T01:34:59;99683.00;;;-1.08;100.00
26192;BME280;13935;55.672;37.764;2023-03-14T01:36:04;99665.00;;;-0.95;100.00
26192;BME280;13935;55.672;37.764;2023-03-14T01:37:06;99666.78;;;-0.91;100.00
26192;BME280;13935;55.672;37.764;2023-03-14T01:38:11;99652.38;;;-1.00;100.00
26192;BME280;13935;55.672;37.764;2023-03-14T01:39:14;99660.03;;;-1.02;100.00
26192;BME280;13935;55.672;37.764;2023-03-14T01:40:16;99662.59;;;-0.97;100.00
26192;BME280;13935;55.672;37.764;2023-03-14T01:41:22;99658.75;;;-0.96;100.00
26192;BME280;13935;55.672;37.764;2023-03-14T01:42:26;99652.38;;;-1.00;100.00
26192;BME280;13935;55.672;37.764;2023-03-14T01:43:30;99656.38;;;-0.89;100.00
26192;BME280;13935;55.672;37.764;2023-03-14T01:47:06;99648.38;;;-1.02;100.00
26192;BME280;13935;55.672;37.764;2023-03-14T01:48:08;99655.41;;;-1.10;100.00
26192;BME280;13935;55.672;37.764;2023-03-14T01:50:13;99659.91;;;-0.97;100.00
26192;BME280;13935;55.672;37.764;2023-03-14T01:52:32;99657.97;;;-0.96;100.00
26192;BME280;13935;55.672;37.764;2023-03-14T01:53:39;99657.63;;;-1.03;100.00
26192;BME280;13935;55.672;37.764;2023-03-14T01:54:48;99641.53;;;-1.00;100.00
26192;BME280;13935;55.672;37.764;2023-03-14T01:55:52;99634.81;;;-1.02;100.00
26192;BME280;13935;55.672;37.764;2023-03-14T01:57:04;99633.69;;;-1.01;100.00
26192;BME280;13935;55.672;37.764;2023-03-14T01:58:10;99622.03;;;-1.02;100.00
26192;BME280;13935;55.672;37.764;2023-03-14T01:59:12;99617.59;;;-0.98;100.00
26192;BME280;13935;55.672;37.764;2023-03-14T02:00:17;99621.75;;;-0.92;100.00
26192;BME280;13935;55.672;37.764;2023-03-14T02:01:24;99619.31;;;-1.02;100.00
26192;BME280;13935;55.672;37.764;2023-03-14T02:02:29;99617.09;;;-1.00;100.00
26192;BME280;13935;55.672;37.764;2023-03-14T02:03:35;99635.47;;;-0.97;100.00
26192;BME280;13935;55.672;37.764;2023-03-14T02:04:41;99627.47;;;-1.02;100.00
26192;BME280;13935;55.672;37.764;2023-03-14T02:05:45;99620.63;;;-0.99;100.00
26192;BME280;13935;55.672;37.764;2023-03-14T02:06:58;99624.91;;;-0.90;100.00
26192;BME280;13935;55.672;37.764;2023-03-14T02:08:10;99620.63;;;-0.91;100.00
26192;BME280;13935;55.672;37.764;2023-03-14T02:09:20;99610.41;;;-0.94;100.00
26192;BME280;13935;55.672;37.764;2023-03-14T02:10:25;99608.00;;;-0.95;100.00
26192;BME280;13935;55.672;37.764;2023-03-14T02:11:30;99598.75;;;-1.03;100.00
26192;BME280;13935;55.672;37.764;2023-03-14T02:13:00;99610.22;;;-0.89;100.00
26192;BME280;13935;55.672;37.764;2023-03-14T02:14:20;99614.06;;;-0.98;100.00
26192;BME280;13935;55.672;37.764;2023-03-14T02:15:48;99606.25;;;-0.91;100.00
26192;BME280;13935;55.672;37.764;2023-03-14T02:17:07;99608.19;;;-0.75;100.00
26192;BME280;13935;55.672;37.764;2023-03-14T02:18:31;99613.28;;;-0.73;100.00
26192;BME280;13935;55.672;37.764;2023-03-14T02:20:21;99608.66;;;-0.73;100.00
26192;BME280;13935;55.672;37.764;2023-03-14T02:22:55;99606.41;;;-0.71;100.00
26192;BME280;13935;55.672;37.764;2023-03-14T02:24:23;99589.66;;;-0.65;100.00
26192;BME280;13935;55.672;37.764;2023-03-14T02:28:12;99585.50;;;-0.62;100.00
26192;BME280;13935;55.672;37.764;2023-03-14T02:29:15;99584.53;;;-0.49;100.00
26192;BME280;13935;55.672;37.764;2023-03-14T02:30:25;99589.00;;;-0.45;100.00
26192;BME280;13935;55.672;37.764;2023-03-14T02:31:27;99585.28;;;-0.40;100.00
26192;BME280;13935;55.672;37.764;2023-03-14T02:32:32;99584.03;;;-0.34;100.00
26192;BME280;13935;55.672;37.764;2023-03-14T02:33:37;99585.00;;;-0.47;100.00
26192;BME280;13935;55.672;37.764;2023-03-14T02:34:42;99584.84;;;-0.42;100.00
26192;BME280;13935;55.672;37.764;2023-03-14T02:36:54;99587.22;;;-0.32;100.00
26192;BME280;13935;55.672;37.764;2023-03-14T02:38:27;99591.88;;;-0.41;100.00
26192;BME280;13935;55.672;37.764;2023-03-14T02:39:38;99555.28;;;-0.35;100.00
26192;BME280;13935;55.672;37.764;2023-03-14T02:40:42;99569.47;;;-0.38;100.00
26192;BME280;13935;55.672;37.764;2023-03-14T02:41:45;99551.59;;;-0.39;100.00
26192;BME280;13935;55.672;37.764;2023-03-14T02:42:53;99536.72;;;-0.33;100.00
26192;BME280;13935;55.672;37.764;2023-03-14T02:43:55;99541.06;;;-0.41;100.00
26192;BME280;13935;55.672;37.764;2023-03-14T02:46:16;99545.69;;;-0.41;100.00
26192;BME280;13935;55.672;37.764;2023-03-14T02:47:22;99535.66;;;-0.49;100.00
26192;BME280;13935;55.672;37.764;2023-03-14T02:48:32;99541.72;;;-0.44;100.00
26192;BME280;13935;55.672;37.764;2023-03-14T02:49:36;99530.34;;;-0.37;100.00
26192;BME280;13935;55.672;37.764;2023-03-14T02:50:39;99534.47;;;-0.31;100.00
26192;BME280;13935;55.672;37.764;2023-03-14T02:51:44;99536.75;;;-0.50;100.00
26192;BME280;13935;55.672;37.764;2023-03-14T02:52:47;99539.63;;;-0.47;100.00
26192;BME280;13935;55.672;37.764;2023-03-14T02:53:49;99539.59;;;-0.38;100.00
26192;BME280;13935;55.672;37.764;2023-03-14T02:54:51;99535.16;;;-0.34;100.00
26192;BME280;13935;55.672;37.764;2023-03-14T02:55:54;99524.59;;;-0.44;100.00
26192;BME280;13935;55.672;37.764;2023-03-14T02:56:58;99531.31;;;-0.42;100.00
26192;BME280;13935;55.672;37.764;2023-03-14T02:58:00;99523.81;;;-0.45;100.00
26192;BME280;13935;55.672;37.764;2023-03-14T02:59:04;99534.19;;;-0.38;100.00
26192;BME280;13935;55.672;37.764;2023-03-14T03:00:16;99524.28;;;-0.34;100.00
26192;BME280;13935;55.672;37.764;2023-03-14T03:01:19;99514.97;;;-0.33;100.00
26192;BME280;13935;55.672;37.764;2023-03-14T03:02:24;99524.41;;;-0.31;100.00
26192;BME280;13935;55.672;37.764;2023-03-14T03:03:26;99521.38;;;-0.29;100.00
26192;BME280;13935;55.672;37.764;2023-03-14T03:04:29;99523.25;;;-0.21;100.00
26192;BME280;13935;55.672;37.764;2023-03-14T03:05:34;99515.47;;;-0.31;100.00
26192;BME280;13935;55.672;37.764;2023-03-14T03:06:36;99515.28;;;-0.26;100.00
26192;BME280;13935;55.672;37.764;2023-03-14T03:07:40;99516.56;;;-0.24;100.00
26192;BME280;13935;55.672;37.764;2023-03-14T03:08:43;99522.81;;;-0.23;100.00
26192;BME280;13935;55.672;37.764;2023-03-14T03:09:47;99520.72;;;-0.26;100.00
26192;BME280;13935;55.672;37.764;2023-03-14T03:10:49;99523.09;;;-0.16;100.00
26192;BME280;13935;55.672;37.764;2023-03-14T03:11:51;99526.75;;;-0.12;100.00
26192;BME280;13935;55.672;37.764;2023-03-14T03:12:57;99521.66;;;-0.14;100.00
26192;BME280;13935;55.672;37.764;2023-03-14T03:14:02;99519.75;;;-0.22;100.00
26192;BME280;13935;55.672;37.764;2023-03-14T03:15:06;99539.22;;;-0.11;100.00
26192;BME280;13935;55.672;37.764;2023-03-14T03:16:10;99537.63;;;-0.12;100.00
26192;BME280;13935;55.672;37.764;2023-03-14T03:17:15;99526.97;;;-0.26;100.00
26192;BME280;13935;55.672;37.764;2023-03-14T03:18:18;99528.38;;;-0.20;100.00
26192;BME280;13935;55.672;37.764;2023-03-14T03:19:20;99512.03;;;-0.11;100.00
26192;BME280;13935;55.672;37.764;2023-03-14T03:20:23;99514.94;;;-0.16;100.00
26192;BME280;13935;55.672;37.764;2023-03-14T03:21:25;99506.47;;;-0.15;100.00
26192;BME280;13935;55.672;37.764;2023-03-14T03:22:27;99517.19;;;-0.18;100.00
26192;BME280;13935;55.672;37.764;2023-03-14T03:23:30;99518.47;;;-0.24;100.00
26192;BME280;13935;55.672;37.764;2023-03-14T03:24:32;99521.84;;;-0.19;100.00
26192;BME280;13935;55.672;37.764;2023-03-14T03:25:36;99508.84;;;-0.13;100.00
26192;BME280;13935;55.672;37.764;2023-03-14T03:26:39;99508.84;;;-0.13;100.00
26192;BME280;13935;55.672;37.764;2023-03-14T03:27:45;99505.84;;;-0.20;100.00
26192;BME280;13935;55.672;37.764;2023-03-14T03:28:51;99502.78;;;-0.10;100.00
26192;BME280;13935;55.672;37.764;2023-03-14T03:29:54;99504.53;;;-0.14;100.00
26192;BME280;13935;55.672;37.764;2023-03-14T03:30:56;99479.94;;;-0.18;100.00
26192;BME280;13935;55.672;37.764;2023-03-14T03:31:59;99489.63;;;-0.08;100.00
26192;BME280;13935;55.672;37.764;2023-03-14T03:33:01;99486.75;;;-0.03;100.00
26192;BME280;13935;55.672;37.764;2023-03-14T03:34:04;99503.53;;;-0.02;100.00
26192;BME280;13935;55.672;37.764;2023-03-14T03:35:07;99491.72;;;-0.05;100.00
26192;BME280;13935;55.672;37.764;2023-03-14T03:36:13;99479.88;;;-0.01;100.00
26192;BME280;13935;55.672;37.764;2023-03-14T03:37:15;99485.16;;;-0.04;100.00
26192;BME280;13935;55.672;37.764;2023-03-14T03:38:18;99481.78;;;-0.02;100.00
26192;BME280;13935;55.672;37.764;2023-03-14T03:39:25;99483.38;;;-0.01;100.00
26192;BME280;13935;55.672;37.764;2023-03-14T03:40:27;99469.31;;;-0.03;100.00
26192;BME280;13935;55.672;37.764;2023-03-14T03:41:31;99460.81;;;0.07;100.00
26192;BME280;13935;55.672;37.764;2023-03-14T03:42:34;99466.38;;;0.11;100.00
26192;BME280;13935;55.672;37.764;2023-03-14T03:43:39;99459.50;;;0.13;100.00
26192;BME280;13935;55.672;37.764;2023-03-14T03:44:43;99457.88;;;0.12;100.00
26192;BME280;13935;55.672;37.764;2023-03-14T03:45:47;99479.00;;;0.15;100.00
26192;BME280;13935;55.672;37.764;2023-03-14T03:46:49;99465.56;;;0.10;100.00
26192;BME280;13935;55.672;37.764;2023-03-14T03:47:52;99467.84;;;0.08;100.00
26192;BME280;13935;55.672;37.764;2023-03-14T03:48:55;99447.66;;;0.09;100.00
26192;BME280;13935;55.672;37.764;2023-03-14T03:49:58;99467.84;;;0.08;100.00
26192;BME280;13935;55.672;37.764;2023-03-14T03:51:02;99466.22;;;0.07;100.00
26192;BME280;13935;55.672;37.764;2023-03-14T03:52:05;99453.38;;;0.16;100.00
26192;BME280;13935;55.672;37.764;2023-03-14T03:53:08;99452.72;;;0.19;100.00
26192;BME280;13935;55.672;37.764;2023-03-14T03:54:11;99461.09;;;0.14;100.00
26192;BME280;13935;55.672;37.764;2023-03-14T03:55:20;99455.66;;;0.14;100.00
26192;BME280;13935;55.672;37.764;2023-03-14T03:56:25;99445.69;;;0.18;100.00
26192;BME280;13935;55.672;37.764;2023-03-14T03:57:28;99448.50;;;0.30;100.00
26192;BME280;13935;55.672;37.764;2023-03-14T03:58:33;99443.06;;;0.30;100.00
26192;BME280;13935;55.672;37.764;2023-03-14T03:59:38;99451.50;;;0.37;100.00
26192;BME280;13935;55.672;37.764;2023-03-14T04:00:42;99454.84;;;0.34;100.00
26192;BME280;13935;55.672;37.764;2023-03-14T04:01:46;99445.44;;;0.32;100.00
26192;BME280;13935;55.672;37.764;2023-03-14T04:02:49;99454.84;;;0.34;100.00
26192;BME280;13935;55.672;37.764;2023-03-14T04:03:53;99450.09;;;0.31;100.00
26192;BME280;13935;55.672;37.764;2023-03-14T04:04:56;99456.38;;;0.44;100.00
26192;BME280;13935;55.672;37.764;2023-03-14T04:06:03;99438.81;;;0.41;100.00
26192;BME280;13935;55.672;37.764;2023-03-14T04:07:08;99449.03;;;0.44;100.00
26192;BME280;13935;55.672;37.764;2023-03-14T04:08:11;99435.78;;;0.43;100.00
26192;BME280;13935;55.672;37.764;2023-03-14T04:09:13;99440.81;;;0.53;100.00
26192;BME280;13935;55.672;37.764;2023-03-14T04:10:21;99451.84;;;0.56;100.00
26192;BME280;13935;55.672;37.764;2023-03-14T04:11:40;99453.16;;;0.50;100.00
26192;BME280;13935;55.672;37.764;2023-03-14T04:12:56;99462.16;;;0.42;100.00
26192;BME280;13935;55.672;37.764;2023-03-14T04:14:02;99447.44;;;0.43;100.00
26192;BME280;13935;55.672;37.764;2023-03-14T04:15:05;99444.78;;;0.55;100.00
26192;BME280;13935;55.672;37.764;2023-03-14T04:16:16;99451.69;;;0.53;100.00
26192;BME280;13935;55.672;37.764;2023-03-14T04:17:20;99445.28;;;0.57;100.00
26192;BME280;13935;55.672;37.764;2023-03-14T04:18:23;99438.72;;;0.58;100.00
26192;BME280;13935;55.672;37.764;2023-03-14T04:19:32;99440.09;;;0.64;100.00
26192;BME280;13935;55.672;37.764;2023-03-14T04:20:34;99436.25;;;0.65;100.00
26192;BME280;13935;55.672;37.764;2023-03-14T04:21:38;99437.97;;;0.49;100.00
26192;BME280;13935;55.672;37.764;2023-03-14T04:22:47;99446.66;;;0.63;100.00
26192;BME280;13935;55.672;37.764;2023-03-14T04:23:50;99443.41;;;0.69;100.00
26192;BME280;13935;55.672;37.764;2023-03-14T04:24:54;99433.31;;;0.70;100.00
26192;BME280;13935;55.672;37.764;2023-03-14T04:25:58;99422.19;;;0.63;100.00
26192;BME280;13935;55.672;37.764;2023-03-14T04:27:01;99419.72;;;0.70;100.00
26192;BME280;13935;55.672;37.764;2023-03-14T04:28:04;99434.91;;;0.71;100.00
26192;BME280;13935;55.672;37.764;2023-03-14T04:29:07;99421.97;;;0.68;100.00
26192;BME280;13935;55.672;37.764;2023-03-14T04:30:16;99432.69;;;0.85;100.00
26192;BME280;13935;55.672;37.764;2023-03-14T04:31:26;99430.31;;;0.83;100.00
26192;BME280;13935;55.672;37.764;2023-03-14T04:32:28;99432.50;;;0.90;100.00
26192;BME280;13935;55.672;37.764;2023-03-14T04:33:32;99419.56;;;0.87;100.00
26192;BME280;13935;55.672;37.764;2023-03-14T04:34:36;99425.47;;;0.89;100.00
26192;BME280;13935;55.672;37.764;2023-03-14T04:35:41;99424.91;;;0.95;100.00
26192;BME280;13935;55.672;37.764;2023-03-14T04:36:48;99415.38;;;0.89;100.00
26192;BME280;13935;55.672;37.764;2023-03-14T04:37:55;99405.53;;;0.97;100.00
26192;BME280;13935;55.672;37.764;2023-03-14T04:38:58;99413.34;;;0.86;100.00
26192;BME280;13935;55.672;37.764;2023-03-14T04:40:06;99412.78;;;0.93;100.00
26192;BME280;13935;55.672;37.764;2023-03-14T04:41:09;99410.78;;;1.02;100.00
26192;BME280;13935;55.672;37.764;2023-03-14T04:42:13;99410.53;;;0.95;100.00
26192;BME280;13935;55.672;37.764;2023-03-14T04:43:16;99409.41;;;0.96;100.00
26192;BME280;13935;55.672;37.764;2023-03-14T04:44:26;99404.66;;;1.05;100.00
26192;BME280;13935;55.672;37.764;2023-03-14T04:45:29;99397.97;;;1.14;100.00
26192;BME280;13935;55.672;37.764;2023-03-14T04:46:33;99403.53;;;1.06;100.00
26192;BME280;13935;55.672;37.764;2023-03-14T04:47:38;99401.97;;;1.17;100.00
26192;BME280;13935;55.672;37.764;2023-03-14T04:48:45;99395.38;;;1.18;100.00
26192;BME280;13935;55.672;37.764;2023-03-14T04:49:48;99394.94;;;1.28;100.00
26192;BME280;13935;55.672;37.764;2023-03-14T04:50:51;99384.84;;;1.16;100.00
26192;BME280;13935;55.672;37.764;2023-03-14T04:51:53;99386.75;;;1.16;100.00
26192;BME280;13935;55.672;37.764;2023-03-14T04:52:59;99388.69;;;1.15;100.00
26192;BME280;13935;55.672;37.764;2023-03-14T04:54:02;99382.88;;;1.05;100.00
26192;BME280;13935;55.672;37.764;2023-03-14T04:55:04;99383.84;;;1.21;100.00
26192;BME280;13935;55.672;37.764;2023-03-14T04:56:07;99387.47;;;1.25;100.00
26192;BME280;13935;55.672;37.764;2023-03-14T04:57:12;99389.97;;;1.30;100.00
26192;BME280;13935;55.672;37.764;2023-03-14T04:58:15;99383.16;;;1.36;100.00
26192;BME280;13935;55.672;37.764;2023-03-14T04:59:20;99379.97;;;1.34;100.00
26192;BME280;13935;55.672;37.764;2023-03-14T05:00:34;99376.72;;;1.40;100.00
26192;BME280;13935;55.672;37.764;2023-03-14T05:02:03;99371.38;;;1.43;100.00
26192;BME280;13935;55.672;37.764;2023-03-14T05:03:18;99385.00;;;1.43;100.00
26192;BME280;13935;55.672;37.764;2023-03-14T05:04:40;99368.41;;;1.48;100.00
26192;BME280;13935;55.672;37.764;2023-03-14T05:06:09;99374.75;;;1.40;100.00
26192;BME280;13935;55.672;37.764;2023-03-14T05:07:33;99375.47;;;1.38;100.00
26192;BME280;13935;55.672;37.764;2023-03-14T05:09:03;99370.91;;;1.41;100.00
26192;BME280;13935;55.672;37.764;2023-03-14T05:10:24;99361.72;;;1.46;100.00
26192;BME280;13935;55.672;37.764;2023-03-14T05:11:49;99363.22;;;1.55;100.00
26192;BME280;13935;55.672;37.764;2023-03-14T05:13:17;99356.28;;;1.46;100.00
26192;BME280;13935;55.672;37.764;2023-03-14T05:14:52;99345.50;;;1.49;100.00
26192;BME280;13935;55.672;37.764;2023-03-14T05:16:27;99340.28;;;1.56;100.00
26192;BME280;13935;55.672;37.764;2023-03-14T05:17:39;99360.25;;;1.60;100.00
26192;BME280;13935;55.672;37.764;2023-03-14T05:18:57;99346.75;;;1.64;100.00
26192;BME280;13935;55.672;37.764;2023-03-14T05:20:20;99338.44;;;1.60;100.00
26192;BME280;13935;55.672;37.764;2023-03-14T05:21:33;99338.69;;;1.67;100.00
26192;BME280;13935;55.672;37.764;2023-03-14T05:23:01;99325.94;;;1.71;100.00
26192;BME280;13935;55.672;37.764;2023-03-14T05:24:27;99333.44;;;1.86;100.00
26192;BME280;13935;55.672;37.764;2023-03-14T05:25:29;99330.38;;;1.88;100.00
26192;BME280;13935;55.672;37.764;2023-03-14T05:27:09;99338.44;;;1.84;100.00
26192;BME280;13935;55.672;37.764;2023-03-14T05:28:22;99327.28;;;1.89;100.00
26192;BME280;13935;55.672;37.764;2023-03-14T05:29:47;99339.34;;;2.00;100.00
26192;BME280;13935;55.672;37.764;2023-03-14T05:31:08;99335.00;;;1.99;100.00
26192;BME280;13935;55.672;37.764;2023-03-14T05:32:40;99334.13;;;1.95;100.00
26192;BME280;13935;55.672;37.764;2023-03-14T05:33:53;99341.13;;;2.08;100.00
26192;BME280;13935;55.672;37.764;2023-03-14T05:35:09;99329.91;;;1.98;100.00
26192;BME280;13935;55.672;37.764;2023-03-14T05:36:30;99318.63;;;2.11;100.00
26192;BME280;13935;55.672;37.764;2023-03-14T05:37:52;99337.38;;;2.12;100.00
26192;BME280;13935;55.672;37.764;2023-03-14T05:39:13;99325.88;;;2.19;100.00
26192;BME280;13935;55.672;37.764;2023-03-14T05:40:42;99338.47;;;2.23;100.00
26192;BME280;13935;55.672;37.764;2023-03-14T05:42:11;99340.16;;;2.28;100.00
26192;BME280;13935;55.672;37.764;2023-03-14T05:43:28;99340.84;;;2.37;100.00
26192;BME280;13935;55.672;37.764;2023-03-14T05:45:00;99346.72;;;2.39;100.00
26192;BME280;13935;55.672;37.764;2023-03-14T05:46:31;99356.06;;;2.38;100.00
26192;BME280;13935;55.672;37.764;2023-03-14T05:47:57;99339.03;;;2.29;100.00
26192;BME280;13935;55.672;37.764;2023-03-14T05:49:42;99341.47;;;2.46;100.00
26192;BME280;13935;55.672;37.764;2023-03-14T05:51:12;99340.28;;;2.59;100.00
26192;BME280;13935;55.672;37.764;2023-03-14T05:52:58;99344.25;;;2.61;100.00
26192;BME280;13935;55.672;37.764;2023-03-14T05:54:15;99344.34;;;2.65;100.00
26192;BME280;13935;55.672;37.764;2023-03-14T05:55:44;99347.53;;;2.67;100.00
26192;BME280;13935;55.672;37.764;2023-03-14T05:57:12;99352.59;;;2.80;100.00
26192;BME280;13935;55.672;37.764;2023-03-14T05:58:33;99363.13;;;2.93;100.00
26192;BME280;13935;55.672;37.764;2023-03-14T05:59:59;99356.16;;;2.96;100.00
26192;BME280;13935;55.672;37.764;2023-03-14T06:01:27;99350.59;;;2.92;100.00